Pagrindinis puslapis
METAR-TAF:

METAR-TAF

Oro uostai :

Petrolina, Pernambuco, Brazilija

platuma: 09-21S, ilguma: 040-33W, Aukštis: 385 m

Dabartinis oras

Ataskaita buvo paskelbta 34 minutes, ne 04:00 UTC
Vėjas 6 kt iš Pietų
Temperatūra 24°C
Drėgmė 83%
Slėgis 1017 hPa
Matomumas 10 km arba daugiau
nėra debesų žemiau 1500 m ir nėra kamuolinių lietaus debesų

METAR: SBPL 220400Z 18006KT CAVOK 24/21 Q1017

Laikas: 01:34 (04:34 UTC)

Prognozė

Ataskaita buvo paskelbta 7 valandos ir 34 minutes, ne 21:00 UTC
Prognozė galioja nuo 22 metu 00 UTC su 22 metu 24 UTC
Vėjas 5 kt iš Pietų/Pietryčių
Matomumas 10 km arba daugiau
Išsisklaidę debesys ne aukštis 2500 ft

TAF: SBPL 212100Z 2200/2224 16005KT 9999 SCT025 TN21/2208Z TX31/2217Z RMK PHD

Orai ataskaitas ir orų prognozės (METAR, TAF).

turimą stotys yra geltonos ir raudonos taškus žemėlapyje.

Perkelti pele per norėdami pamatyti stoties vardą.

Tada spustelėkite, norėdami matyti oro stebėjimo ir prognozės.

Norėdami pakeisti žemėlapį: spustelėkite ant žalios mygtukų su juodo kryžiaus žemyn,; žalią mygtuką su brūkšneliu, jei norite nutolinti; arba žalių rodyklių gretimoms žemėlapius.


METAR-TAF: